sensor_id;sensor_type;location;lat;lon;timestamp;temperature;humidity
10472;DHT22;5283;48.876;8.962;2022-11-15T00:00:53;9.30;99.90
10472;DHT22;5283;48.876;8.962;2022-11-15T00:03:27;9.20;99.90
10472;DHT22;5283;48.876;8.962;2022-11-15T00:05:53;9.20;99.90
10472;DHT22;5283;48.876;8.962;2022-11-15T00:08:20;9.00;99.90
10472;DHT22;5283;48.876;8.962;2022-11-15T00:11:01;8.80;99.90
10472;DHT22;5283;48.876;8.962;2022-11-15T00:13:29;8.50;99.90
10472;DHT22;5283;48.876;8.962;2022-11-15T00:16:00;8.30;99.90
10472;DHT22;5283;48.876;8.962;2022-11-15T00:18:28;8.00;99.90
10472;DHT22;5283;48.876;8.962;2022-11-15T00:20:55;7.80;99.90
10472;DHT22;5283;48.876;8.962;2022-11-15T00:23:22;7.70;99.90
10472;DHT22;5283;48.876;8.962;2022-11-15T00:25:56;7.60;99.90
10472;DHT22;5283;48.876;8.962;2022-11-15T00:28:24;7.50;99.90
10472;DHT22;5283;48.876;8.962;2022-11-15T00:30:51;7.40;99.90
10472;DHT22;5283;48.876;8.962;2022-11-15T00:33:18;7.40;99.90
10472;DHT22;5283;48.876;8.962;2022-11-15T00:35:45;7.30;99.90
10472;DHT22;5283;48.876;8.962;2022-11-15T00:38:12;7.30;99.90
10472;DHT22;5283;48.876;8.962;2022-11-15T00:40:39;7.30;99.90
10472;DHT22;5283;48.876;8.962;2022-11-15T00:43:05;7.30;99.90
10472;DHT22;5283;48.876;8.962;2022-11-15T00:45:32;7.30;99.90
10472;DHT22;5283;48.876;8.962;2022-11-15T00:47:59;7.30;99.90
10472;DHT22;5283;48.876;8.962;2022-11-15T00:50:25;7.30;99.90
10472;DHT22;5283;48.876;8.962;2022-11-15T00:52:52;7.20;99.90
10472;DHT22;5283;48.876;8.962;2022-11-15T00:55:19;7.20;99.90
10472;DHT22;5283;48.876;8.962;2022-11-15T00:57:46;7.10;99.90
10472;DHT22;5283;48.876;8.962;2022-11-15T01:00:13;7.00;99.90
10472;DHT22;5283;48.876;8.962;2022-11-15T01:02:40;7.00;99.90
10472;DHT22;5283;48.876;8.962;2022-11-15T01:05:08;6.90;99.90
10472;DHT22;5283;48.876;8.962;2022-11-15T01:07:35;6.90;99.90
10472;DHT22;5283;48.876;8.962;2022-11-15T01:10:02;6.80;99.90
10472;DHT22;5283;48.876;8.962;2022-11-15T01:12:29;6.70;99.90
10472;DHT22;5283;48.876;8.962;2022-11-15T01:14:56;6.60;99.90
10472;DHT22;5283;48.876;8.962;2022-11-15T01:17:23;6.40;99.90
10472;DHT22;5283;48.876;8.962;2022-11-15T01:19:50;6.40;99.90
10472;DHT22;5283;48.876;8.962;2022-11-15T01:22:16;6.30;99.90
10472;DHT22;5283;48.876;8.962;2022-11-15T01:24:43;6.30;99.90
10472;DHT22;5283;48.876;8.962;2022-11-15T01:27:10;6.30;99.90
10472;DHT22;5283;48.876;8.962;2022-11-15T01:29:37;6.20;99.90
10472;DHT22;5283;48.876;8.962;2022-11-15T01:32:03;6.10;99.90
10472;DHT22;5283;48.876;8.962;2022-11-15T01:34:30;6.10;99.90
10472;DHT22;5283;48.876;8.962;2022-11-15T01:36:57;6.10;99.90
10472;DHT22;5283;48.876;8.962;2022-11-15T01:39:23;6.20;99.90
10472;DHT22;5283;48.876;8.962;2022-11-15T01:41:50;6.20;99.90
10472;DHT22;5283;48.876;8.962;2022-11-15T01:44:48;6.30;99.90
10472;DHT22;5283;48.876;8.962;2022-11-15T01:47:21;6.20;99.90
10472;DHT22;5283;48.876;8.962;2022-11-15T01:50:02;6.00;99.90
10472;DHT22;5283;48.876;8.962;2022-11-15T01:52:31;6.00;99.90
10472;DHT22;5283;48.876;8.962;2022-11-15T01:57:31;6.00;99.90
10472;DHT22;5283;48.876;8.962;2022-11-15T02:00:00;6.00;99.90
10472;DHT22;5283;48.876;8.962;2022-11-15T02:02:27;6.20;99.90
10472;DHT22;5283;48.876;8.962;2022-11-15T02:04:54;6.20;99.90
10472;DHT22;5283;48.876;8.962;2022-11-15T02:07:22;6.20;99.90
10472;DHT22;5283;48.876;8.962;2022-11-15T02:09:49;6.30;99.90
10472;DHT22;5283;48.876;8.962;2022-11-15T02:12:20;6.30;99.90
10472;DHT22;5283;48.876;8.962;2022-11-15T02:14:51;6.30;99.90
10472;DHT22;5283;48.876;8.962;2022-11-15T02:20:32;6.30;99.90
10472;DHT22;5283;48.876;8.962;2022-11-15T02:23:26;6.40;99.90
10472;DHT22;5283;48.876;8.962;2022-11-15T02:26:34;6.60;99.90
10472;DHT22;5283;48.876;8.962;2022-11-15T02:29:10;6.70;99.90
10472;DHT22;5283;48.876;8.962;2022-11-15T02:37:24;7.00;99.90
10472;DHT22;5283;48.876;8.962;2022-11-15T02:40:23;7.00;99.90
10472;DHT22;5283;48.876;8.962;2022-11-15T02:42:57;7.10;99.90
10472;DHT22;5283;48.876;8.962;2022-11-15T02:45:50;7.20;99.90
10472;DHT22;5283;48.876;8.962;2022-11-15T02:48:18;7.30;99.90
10472;DHT22;5283;48.876;8.962;2022-11-15T02:50:48;7.30;99.90
10472;DHT22;5283;48.876;8.962;2022-11-15T02:53:15;7.30;99.90
10472;DHT22;5283;48.876;8.962;2022-11-15T02:55:46;7.30;99.90
10472;DHT22;5283;48.876;8.962;2022-11-15T03:04:02;7.30;99.90
10472;DHT22;5283;48.876;8.962;2022-11-15T03:06:58;7.20;99.90
10472;DHT22;5283;48.876;8.962;2022-11-15T03:12:36;7.00;99.90
10472;DHT22;5283;48.876;8.962;2022-11-15T03:15:21;7.00;99.90
10472;DHT22;5283;48.876;8.962;2022-11-15T03:18:04;7.00;99.90
10472;DHT22;5283;48.876;8.962;2022-11-15T03:20:31;6.90;99.90
10472;DHT22;5283;48.876;8.962;2022-11-15T03:23:09;6.90;99.90
10472;DHT22;5283;48.876;8.962;2022-11-15T03:25:41;6.90;99.90
10472;DHT22;5283;48.876;8.962;2022-11-15T03:28:15;6.80;99.90
10472;DHT22;5283;48.876;8.962;2022-11-15T03:30:46;6.70;99.90
10472;DHT22;5283;48.876;8.962;2022-11-15T03:33:14;6.70;99.90
10472;DHT22;5283;48.876;8.962;2022-11-15T03:35:43;6.80;99.90
10472;DHT22;5283;48.876;8.962;2022-11-15T03:38:23;6.90;99.90
10472;DHT22;5283;48.876;8.962;2022-11-15T03:40:59;6.90;99.90
10472;DHT22;5283;48.876;8.962;2022-11-15T03:46:10;7.10;99.90
10472;DHT22;5283;48.876;8.962;2022-11-15T03:48:56;7.10;99.90
10472;DHT22;5283;48.876;8.962;2022-11-15T03:51:24;7.20;99.90
10472;DHT22;5283;48.876;8.962;2022-11-15T03:53:51;7.20;99.90
10472;DHT22;5283;48.876;8.962;2022-11-15T03:56:18;7.30;99.90
10472;DHT22;5283;48.876;8.962;2022-11-15T03:58:45;7.40;99.90
10472;DHT22;5283;48.876;8.962;2022-11-15T04:01:11;7.40;99.90
10472;DHT22;5283;48.876;8.962;2022-11-15T04:03:38;7.50;99.90
10472;DHT22;5283;48.876;8.962;2022-11-15T04:06:05;7.60;99.90
10472;DHT22;5283;48.876;8.962;2022-11-15T04:08:32;7.60;99.90
10472;DHT22;5283;48.876;8.962;2022-11-15T04:10:58;7.60;99.90
10472;DHT22;5283;48.876;8.962;2022-11-15T04:13:27;7.60;99.90
10472;DHT22;5283;48.876;8.962;2022-11-15T04:15:54;7.50;99.90
10472;DHT22;5283;48.876;8.962;2022-11-15T04:18:21;7.60;99.90
10472;DHT22;5283;48.876;8.962;2022-11-15T04:20:48;7.60;99.90
10472;DHT22;5283;48.876;8.962;2022-11-15T04:23:33;7.60;99.90
10472;DHT22;5283;48.876;8.962;2022-11-15T04:26:20;7.70;99.90
10472;DHT22;5283;48.876;8.962;2022-11-15T04:28:48;7.70;99.90
10472;DHT22;5283;48.876;8.962;2022-11-15T04:31:38;7.70;99.90
10472;DHT22;5283;48.876;8.962;2022-11-15T04:34:04;7.80;99.90
10472;DHT22;5283;48.876;8.962;2022-11-15T04:36:31;7.90;99.90
10472;DHT22;5283;48.876;8.962;2022-11-15T04:39:16;7.90;99.90
10472;DHT22;5283;48.876;8.962;2022-11-15T04:41:43;8.00;99.90
10472;DHT22;5283;48.876;8.962;2022-11-15T04:44:10;7.90;99.90
10472;DHT22;5283;48.876;8.962;2022-11-15T04:46:37;8.00;99.90
10472;DHT22;5283;48.876;8.962;2022-11-15T04:49:03;7.90;99.90
10472;DHT22;5283;48.876;8.962;2022-11-15T04:51:30;7.90;99.90
10472;DHT22;5283;48.876;8.962;2022-11-15T04:53:57;7.80;99.90
10472;DHT22;5283;48.876;8.962;2022-11-15T04:56:23;7.80;99.90
10472;DHT22;5283;48.876;8.962;2022-11-15T04:58:50;7.90;99.90
10472;DHT22;5283;48.876;8.962;2022-11-15T05:01:17;7.90;99.90
10472;DHT22;5283;48.876;8.962;2022-11-15T05:03:44;7.90;99.90
10472;DHT22;5283;48.876;8.962;2022-11-15T05:06:30;7.90;99.90
10472;DHT22;5283;48.876;8.962;2022-11-15T05:08:57;7.90;99.90
10472;DHT22;5283;48.876;8.962;2022-11-15T05:11:23;7.90;99.90
10472;DHT22;5283;48.876;8.962;2022-11-15T05:13:50;7.80;99.90
10472;DHT22;5283;48.876;8.962;2022-11-15T05:16:17;7.80;99.90
10472;DHT22;5283;48.876;8.962;2022-11-15T05:18:44;7.80;99.90
10472;DHT22;5283;48.876;8.962;2022-11-15T05:21:13;7.80;99.90
10472;DHT22;5283;48.876;8.962;2022-11-15T05:23:41;7.80;99.90
10472;DHT22;5283;48.876;8.962;2022-11-15T05:26:08;7.70;99.90
10472;DHT22;5283;48.876;8.962;2022-11-15T05:28:35;7.80;99.90
10472;DHT22;5283;48.876;8.962;2022-11-15T05:33:31;7.70;99.90
10472;DHT22;5283;48.876;8.962;2022-11-15T05:36:07;7.70;99.90
10472;DHT22;5283;48.876;8.962;2022-11-15T05:38:34;7.70;99.90
10472;DHT22;5283;48.876;8.962;2022-11-15T05:41:01;7.70;99.90
10472;DHT22;5283;48.876;8.962;2022-11-15T05:43:31;7.70;99.90
10472;DHT22;5283;48.876;8.962;2022-11-15T05:45:59;7.70;99.90
10472;DHT22;5283;48.876;8.962;2022-11-15T05:48:26;7.70;99.90
10472;DHT22;5283;48.876;8.962;2022-11-15T05:50:53;7.70;99.90
10472;DHT22;5283;48.876;8.962;2022-11-15T05:53:21;7.70;99.90
10472;DHT22;5283;48.876;8.962;2022-11-15T05:55:49;7.70;99.90
10472;DHT22;5283;48.876;8.962;2022-11-15T05:58:16;7.70;99.90
10472;DHT22;5283;48.876;8.962;2022-11-15T06:00:43;7.80;99.90
10472;DHT22;5283;48.876;8.962;2022-11-15T06:03:10;7.80;99.90
10472;DHT22;5283;48.876;8.962;2022-11-15T06:05:37;7.80;99.90
10472;DHT22;5283;48.876;8.962;2022-11-15T06:08:03;7.90;99.90
10472;DHT22;5283;48.876;8.962;2022-11-15T06:10:30;8.00;99.90
10472;DHT22;5283;48.876;8.962;2022-11-15T06:13:02;8.10;99.90
10472;DHT22;5283;48.876;8.962;2022-11-15T06:15:29;8.30;99.90
10472;DHT22;5283;48.876;8.962;2022-11-15T06:17:57;8.40;99.90
10472;DHT22;5283;48.876;8.962;2022-11-15T06:20:28;8.40;99.90
10472;DHT22;5283;48.876;8.962;2022-11-15T06:22:59;8.40;99.90
10472;DHT22;5283;48.876;8.962;2022-11-15T06:25:27;8.40;99.90
10472;DHT22;5283;48.876;8.962;2022-11-15T06:27:56;8.40;99.90
10472;DHT22;5283;48.876;8.962;2022-11-15T06:30:24;8.40;99.90
10472;DHT22;5283;48.876;8.962;2022-11-15T06:32:51;8.40;99.90
10472;DHT22;5283;48.876;8.962;2022-11-15T06:35:24;8.40;99.90
10472;DHT22;5283;48.876;8.962;2022-11-15T06:37:51;8.30;99.90
10472;DHT22;5283;48.876;8.962;2022-11-15T06:40:17;8.30;99.90
10472;DHT22;5283;48.876;8.962;2022-11-15T06:42:44;8.20;99.90
10472;DHT22;5283;48.876;8.962;2022-11-15T06:45:11;8.30;99.90
10472;DHT22;5283;48.876;8.962;2022-11-15T06:47:47;8.30;99.90
10472;DHT22;5283;48.876;8.962;2022-11-15T06:50:14;8.20;99.90
10472;DHT22;5283;48.876;8.962;2022-11-15T06:52:40;8.10;99.90
10472;DHT22;5283;48.876;8.962;2022-11-15T06:55:08;8.10;99.90
10472;DHT22;5283;48.876;8.962;2022-11-15T06:57:35;8.10;99.90
10472;DHT22;5283;48.876;8.962;2022-11-15T07:00:05;8.10;99.90
10472;DHT22;5283;48.876;8.962;2022-11-15T07:02:32;8.20;99.90
10472;DHT22;5283;48.876;8.962;2022-11-15T07:04:59;8.20;99.90
10472;DHT22;5283;48.876;8.962;2022-11-15T07:07:26;8.20;99.90
10472;DHT22;5283;48.876;8.962;2022-11-15T07:09:52;8.20;99.90
10472;DHT22;5283;48.876;8.962;2022-11-15T07:12:19;8.30;99.90
10472;DHT22;5283;48.876;8.962;2022-11-15T07:14:46;8.40;99.90
10472;DHT22;5283;48.876;8.962;2022-11-15T07:17:12;8.50;99.90
10472;DHT22;5283;48.876;8.962;2022-11-15T07:19:40;8.60;99.90
10472;DHT22;5283;48.876;8.962;2022-11-15T07:22:06;8.70;99.90
10472;DHT22;5283;48.876;8.962;2022-11-15T07:24:33;8.70;99.90
10472;DHT22;5283;48.876;8.962;2022-11-15T07:27:00;8.70;99.90
10472;DHT22;5283;48.876;8.962;2022-11-15T07:29:26;8.80;99.90
10472;DHT22;5283;48.876;8.962;2022-11-15T07:31:53;8.90;99.90
10472;DHT22;5283;48.876;8.962;2022-11-15T07:34:20;9.10;99.90
10472;DHT22;5283;48.876;8.962;2022-11-15T07:36:47;9.20;99.90
10472;DHT22;5283;48.876;8.962;2022-11-15T07:39:13;9.40;99.90
10472;DHT22;5283;48.876;8.962;2022-11-15T07:41:41;9.60;99.90
10472;DHT22;5283;48.876;8.962;2022-11-15T07:44:07;9.80;99.90
10472;DHT22;5283;48.876;8.962;2022-11-15T07:46:34;9.90;99.90
10472;DHT22;5283;48.876;8.962;2022-11-15T07:49:01;10.00;99.90
10472;DHT22;5283;48.876;8.962;2022-11-15T07:51:28;10.10;99.90
10472;DHT22;5283;48.876;8.962;2022-11-15T07:53:54;10.20;99.90
10472;DHT22;5283;48.876;8.962;2022-11-15T07:56:21;10.30;99.90
10472;DHT22;5283;48.876;8.962;2022-11-15T07:58:48;10.40;99.90
10472;DHT22;5283;48.876;8.962;2022-11-15T08:01:14;10.50;99.90
10472;DHT22;5283;48.876;8.962;2022-11-15T08:03:41;10.50;99.90
10472;DHT22;5283;48.876;8.962;2022-11-15T08:06:08;10.60;99.90
10472;DHT22;5283;48.876;8.962;2022-11-15T08:08:34;10.70;99.90
10472;DHT22;5283;48.876;8.962;2022-11-15T08:11:01;10.80;99.90
10472;DHT22;5283;48.876;8.962;2022-11-15T08:13:28;10.90;99.90
10472;DHT22;5283;48.876;8.962;2022-11-15T08:16:02;11.10;99.90
10472;DHT22;5283;48.876;8.962;2022-11-15T08:18:29;11.20;99.90
10472;DHT22;5283;48.876;8.962;2022-11-15T08:20:59;11.30;99.90
10472;DHT22;5283;48.876;8.962;2022-11-15T08:23:26;11.50;99.90
10472;DHT22;5283;48.876;8.962;2022-11-15T08:25:58;11.60;99.90
10472;DHT22;5283;48.876;8.962;2022-11-15T08:28:25;11.60;99.90
10472;DHT22;5283;48.876;8.962;2022-11-15T08:30:51;11.70;99.90
10472;DHT22;5283;48.876;8.962;2022-11-15T08:33:18;11.80;99.90
10472;DHT22;5283;48.876;8.962;2022-11-15T08:35:45;11.90;99.90
10472;DHT22;5283;48.876;8.962;2022-11-15T08:38:12;12.00;99.90
10472;DHT22;5283;48.876;8.962;2022-11-15T08:40:38;12.20;99.90
10472;DHT22;5283;48.876;8.962;2022-11-15T08:43:05;12.30;99.90
10472;DHT22;5283;48.876;8.962;2022-11-15T08:45:34;12.40;99.90
10472;DHT22;5283;48.876;8.962;2022-11-15T08:48:02;12.50;99.90
10472;DHT22;5283;48.876;8.962;2022-11-15T08:50:29;12.60;99.90
10472;DHT22;5283;48.876;8.962;2022-11-15T08:52:56;12.70;99.90
10472;DHT22;5283;48.876;8.962;2022-11-15T08:55:23;12.80;99.90
10472;DHT22;5283;48.876;8.962;2022-11-15T08:57:50;12.90;99.90
10472;DHT22;5283;48.876;8.962;2022-11-15T09:00:17;13.00;99.90
10472;DHT22;5283;48.876;8.962;2022-11-15T09:02:46;13.20;99.90
10472;DHT22;5283;48.876;8.962;2022-11-15T09:05:13;13.30;99.90
10472;DHT22;5283;48.876;8.962;2022-11-15T09:07:41;13.30;99.90
10472;DHT22;5283;48.876;8.962;2022-11-15T09:10:08;13.40;99.90
10472;DHT22;5283;48.876;8.962;2022-11-15T09:12:35;13.50;99.90
10472;DHT22;5283;48.876;8.962;2022-11-15T09:15:02;13.40;99.90
10472;DHT22;5283;48.876;8.962;2022-11-15T09:17:29;13.50;99.90
10472;DHT22;5283;48.876;8.962;2022-11-15T09:19:56;13.60;99.90
10472;DHT22;5283;48.876;8.962;2022-11-15T09:22:23;13.60;99.90
10472;DHT22;5283;48.876;8.962;2022-11-15T09:24:49;13.70;99.90
10472;DHT22;5283;48.876;8.962;2022-11-15T09:27:16;13.80;99.90
10472;DHT22;5283;48.876;8.962;2022-11-15T09:29:42;13.90;99.90
10472;DHT22;5283;48.876;8.962;2022-11-15T09:32:09;14.00;99.90
10472;DHT22;5283;48.876;8.962;2022-11-15T09:34:36;14.20;99.90
10472;DHT22;5283;48.876;8.962;2022-11-15T09:37:03;14.30;99.90
10472;DHT22;5283;48.876;8.962;2022-11-15T09:39:29;14.40;99.90
10472;DHT22;5283;48.876;8.962;2022-11-15T09:44:52;14.50;99.90
10472;DHT22;5283;48.876;8.962;2022-11-15T09:47:36;14.50;99.90
10472;DHT22;5283;48.876;8.962;2022-11-15T09:50:12;14.70;99.90
10472;DHT22;5283;48.876;8.962;2022-11-15T09:52:42;14.90;99.90
10472;DHT22;5283;48.876;8.962;2022-11-15T09:55:11;14.90;99.90
10472;DHT22;5283;48.876;8.962;2022-11-15T09:58:03;14.90;99.90
10472;DHT22;5283;48.876;8.962;2022-11-15T10:00:38;14.90;99.90
10472;DHT22;5283;48.876;8.962;2022-11-15T10:03:34;14.80;99.90
10472;DHT22;5283;48.876;8.962;2022-11-15T10:06:03;14.70;99.90
10472;DHT22;5283;48.876;8.962;2022-11-15T10:08:51;14.60;99.90
10472;DHT22;5283;48.876;8.962;2022-11-15T10:11:25;14.60;99.90
10472;DHT22;5283;48.876;8.962;2022-11-15T10:14:15;14.50;99.90
10472;DHT22;5283;48.876;8.962;2022-11-15T10:17:21;14.50;99.90
10472;DHT22;5283;48.876;8.962;2022-11-15T10:19:56;14.50;99.90
10472;DHT22;5283;48.876;8.962;2022-11-15T10:22:44;14.40;99.90
10472;DHT22;5283;48.876;8.962;2022-11-15T10:27:40;14.40;99.90
10472;DHT22;5283;48.876;8.962;2022-11-15T10:30:15;14.40;99.90
10472;DHT22;5283;48.876;8.962;2022-11-15T10:32:43;14.30;99.90
10472;DHT22;5283;48.876;8.962;2022-11-15T10:35:37;14.30;99.90
10472;DHT22;5283;48.876;8.962;2022-11-15T10:38:09;14.20;99.90
10472;DHT22;5283;48.876;8.962;2022-11-15T10:40:37;14.10;99.90
10472;DHT22;5283;48.876;8.962;2022-11-15T10:45:37;14.10;99.90
10472;DHT22;5283;48.876;8.962;2022-11-15T10:50:45;14.00;99.90
10472;DHT22;5283;48.876;8.962;2022-11-15T10:53:43;14.10;99.90
10472;DHT22;5283;48.876;8.962;2022-11-15T10:56:14;14.10;99.90
10472;DHT22;5283;48.876;8.962;2022-11-15T10:58:44;14.00;99.90
10472;DHT22;5283;48.876;8.962;2022-11-15T11:01:15;14.00;99.90
10472;DHT22;5283;48.876;8.962;2022-11-15T11:03:44;14.00;99.90
10472;DHT22;5283;48.876;8.962;2022-11-15T11:06:15;14.00;99.90
10472;DHT22;5283;48.876;8.962;2022-11-15T11:08:57;13.90;99.90
10472;DHT22;5283;48.876;8.962;2022-11-15T11:11:26;13.90;99.90
10472;DHT22;5283;48.876;8.962;2022-11-15T11:14:22;13.90;99.90
10472;DHT22;5283;48.876;8.962;2022-11-15T11:23:05;13.70;99.90
10472;DHT22;5283;48.876;8.962;2022-11-15T11:28:58;14.00;99.90
10472;DHT22;5283;48.876;8.962;2022-11-15T11:34:37;14.40;99.90
10472;DHT22;5283;48.876;8.962;2022-11-15T11:40:13;14.70;99.90
10472;DHT22;5283;48.876;8.962;2022-11-15T11:42:53;14.90;99.90
10472;DHT22;5283;48.876;8.962;2022-11-15T11:48:14;15.20;99.90
10472;DHT22;5283;48.876;8.962;2022-11-15T11:50:48;15.30;99.90
10472;DHT22;5283;48.876;8.962;2022-11-15T11:53:27;15.40;99.90
10472;DHT22;5283;48.876;8.962;2022-11-15T11:56:03;15.40;99.90
10472;DHT22;5283;48.876;8.962;2022-11-15T11:58:40;15.50;99.90
10472;DHT22;5283;48.876;8.962;2022-11-15T12:03:45;15.50;99.90
10472;DHT22;5283;48.876;8.962;2022-11-15T12:06:56;15.50;99.90
10472;DHT22;5283;48.876;8.962;2022-11-15T12:09:36;15.60;99.90
10472;DHT22;5283;48.876;8.962;2022-11-15T12:17:38;15.70;99.90
10472;DHT22;5283;48.876;8.962;2022-11-15T12:20:18;15.70;99.90
10472;DHT22;5283;48.876;8.962;2022-11-15T12:23:04;15.60;99.90
10472;DHT22;5283;48.876;8.962;2022-11-15T12:25:44;15.60;99.90
10472;DHT22;5283;48.876;8.962;2022-11-15T12:31:18;15.40;99.90
10472;DHT22;5283;48.876;8.962;2022-11-15T12:33:47;15.40;99.90
10472;DHT22;5283;48.876;8.962;2022-11-15T12:39:09;15.20;99.90
10472;DHT22;5283;48.876;8.962;2022-11-15T12:41:41;15.10;99.90
10472;DHT22;5283;48.876;8.962;2022-11-15T12:59:57;14.60;99.90
10472;DHT22;5283;48.876;8.962;2022-11-15T13:02:43;14.60;99.90
10472;DHT22;5283;48.876;8.962;2022-11-15T13:13:00;14.90;99.90
10472;DHT22;5283;48.876;8.962;2022-11-15T13:15:37;15.00;99.90
10472;DHT22;5283;48.876;8.962;2022-11-15T13:20:59;15.00;99.90
10472;DHT22;5283;48.876;8.962;2022-11-15T13:23:28;15.10;99.90
10472;DHT22;5283;48.876;8.962;2022-11-15T13:25:57;15.10;99.90
10472;DHT22;5283;48.876;8.962;2022-11-15T13:28:35;15.10;99.90
10472;DHT22;5283;48.876;8.962;2022-11-15T13:33:51;15.00;99.90
10472;DHT22;5283;48.876;8.962;2022-11-15T13:36:22;15.00;99.90
10472;DHT22;5283;48.876;8.962;2022-11-15T13:39:05;15.10;99.90
10472;DHT22;5283;48.876;8.962;2022-11-15T13:41:45;15.10;99.90
10472;DHT22;5283;48.876;8.962;2022-11-15T13:44:25;15.10;99.90
10472;DHT22;5283;48.876;8.962;2022-11-15T13:47:21;15.00;99.90
10472;DHT22;5283;48.876;8.962;2022-11-15T13:49:47;15.00;99.90
10472;DHT22;5283;48.876;8.962;2022-11-15T13:52:15;14.90;99.90
10472;DHT22;5283;48.876;8.962;2022-11-15T13:54:53;14.70;99.90
10472;DHT22;5283;48.876;8.962;2022-11-15T13:57:25;14.60;99.90
10472;DHT22;5283;48.876;8.962;2022-11-15T14:00:01;14.50;99.90
10472;DHT22;5283;48.876;8.962;2022-11-15T14:02:35;14.40;99.90
10472;DHT22;5283;48.876;8.962;2022-11-15T14:05:14;14.30;99.90
10472;DHT22;5283;48.876;8.962;2022-11-15T14:08:38;14.20;99.90
10472;DHT22;5283;48.876;8.962;2022-11-15T14:10:39;14.20;99.90
10472;DHT22;5283;48.876;8.962;2022-11-15T14:13:28;14.10;99.90
10472;DHT22;5283;48.876;8.962;2022-11-15T14:16:21;14.00;99.90
10472;DHT22;5283;48.876;8.962;2022-11-15T14:18:58;13.90;99.90
10472;DHT22;5283;48.876;8.962;2022-11-15T14:21:25;13.80;99.90
10472;DHT22;5283;48.876;8.962;2022-11-15T14:23:52;13.70;99.90
10472;DHT22;5283;48.876;8.962;2022-11-15T14:26:45;13.50;99.90
10472;DHT22;5283;48.876;8.962;2022-11-15T14:29:25;13.50;99.90
10472;DHT22;5283;48.876;8.962;2022-11-15T14:32:13;13.50;99.90
10472;DHT22;5283;48.876;8.962;2022-11-15T14:34:40;13.50;99.90
10472;DHT22;5283;48.876;8.962;2022-11-15T14:37:21;13.50;99.90
10472;DHT22;5283;48.876;8.962;2022-11-15T14:39:48;13.60;99.90
10472;DHT22;5283;48.876;8.962;2022-11-15T14:42:16;13.60;99.90
10472;DHT22;5283;48.876;8.962;2022-11-15T14:44:42;13.60;99.90
10472;DHT22;5283;48.876;8.962;2022-11-15T14:47:11;13.60;99.90
10472;DHT22;5283;48.876;8.962;2022-11-15T14:49:38;13.50;99.90
10472;DHT22;5283;48.876;8.962;2022-11-15T14:52:23;13.50;99.90
10472;DHT22;5283;48.876;8.962;2022-11-15T14:54:53;13.40;99.90
10472;DHT22;5283;48.876;8.962;2022-11-15T14:57:20;13.40;99.90
10472;DHT22;5283;48.876;8.962;2022-11-15T14:59:47;13.30;99.90
10472;DHT22;5283;48.876;8.962;2022-11-15T15:02:18;13.30;99.90
10472;DHT22;5283;48.876;8.962;2022-11-15T15:04:45;13.20;99.90
10472;DHT22;5283;48.876;8.962;2022-11-15T15:07:12;13.20;99.90
10472;DHT22;5283;48.876;8.962;2022-11-15T15:09:39;13.20;99.90
10472;DHT22;5283;48.876;8.962;2022-11-15T15:12:20;13.10;99.90
10472;DHT22;5283;48.876;8.962;2022-11-15T15:14:49;13.10;99.90
10472;DHT22;5283;48.876;8.962;2022-11-15T15:17:16;12.90;99.90
10472;DHT22;5283;48.876;8.962;2022-11-15T15:19:43;12.80;99.90
10472;DHT22;5283;48.876;8.962;2022-11-15T15:22:15;12.70;99.90
10472;DHT22;5283;48.876;8.962;2022-11-15T15:24:42;12.50;99.90
10472;DHT22;5283;48.876;8.962;2022-11-15T15:27:10;12.40;99.90
10472;DHT22;5283;48.876;8.962;2022-11-15T15:29:37;12.30;99.90
10472;DHT22;5283;48.876;8.962;2022-11-15T15:32:04;12.10;99.90
10472;DHT22;5283;48.876;8.962;2022-11-15T15:34:32;12.10;99.90
10472;DHT22;5283;48.876;8.962;2022-11-15T15:39:52;11.80;99.90
10472;DHT22;5283;48.876;8.962;2022-11-15T15:42:19;11.70;99.90
10472;DHT22;5283;48.876;8.962;2022-11-15T15:44:50;11.60;99.90
10472;DHT22;5283;48.876;8.962;2022-11-15T15:47:19;11.50;99.90
10472;DHT22;5283;48.876;8.962;2022-11-15T15:49:46;11.40;99.90
10472;DHT22;5283;48.876;8.962;2022-11-15T15:52:13;11.40;99.90
10472;DHT22;5283;48.876;8.962;2022-11-15T15:54:40;11.30;99.90
10472;DHT22;5283;48.876;8.962;2022-11-15T15:57:08;11.30;99.90
10472;DHT22;5283;48.876;8.962;2022-11-15T15:59:35;11.30;99.90
10472;DHT22;5283;48.876;8.962;2022-11-15T16:02:02;11.30;99.90
10472;DHT22;5283;48.876;8.962;2022-11-15T16:04:30;11.30;99.90
10472;DHT22;5283;48.876;8.962;2022-11-15T16:07:00;11.40;99.90
10472;DHT22;5283;48.876;8.962;2022-11-15T16:09:27;11.40;99.90
10472;DHT22;5283;48.876;8.962;2022-11-15T16:12:12;11.40;99.90
10472;DHT22;5283;48.876;8.962;2022-11-15T16:14:39;11.50;99.90
10472;DHT22;5283;48.876;8.962;2022-11-15T16:17:05;11.60;99.90
10472;DHT22;5283;48.876;8.962;2022-11-15T16:19:33;11.60;99.90
10472;DHT22;5283;48.876;8.962;2022-11-15T16:21:59;11.70;99.90
10472;DHT22;5283;48.876;8.962;2022-11-15T16:24:26;11.80;99.90
10472;DHT22;5283;48.876;8.962;2022-11-15T16:26:53;11.80;99.90
10472;DHT22;5283;48.876;8.962;2022-11-15T16:29:20;11.80;99.90
10472;DHT22;5283;48.876;8.962;2022-11-15T16:31:46;11.90;99.90
10472;DHT22;5283;48.876;8.962;2022-11-15T16:34:13;11.90;99.90
10472;DHT22;5283;48.876;8.962;2022-11-15T16:36:40;11.90;99.90
10472;DHT22;5283;48.876;8.962;2022-11-15T16:39:11;11.80;99.90
10472;DHT22;5283;48.876;8.962;2022-11-15T16:41:40;11.80;99.90
10472;DHT22;5283;48.876;8.962;2022-11-15T16:44:09;11.70;99.90
10472;DHT22;5283;48.876;8.962;2022-11-15T16:46:36;11.70;99.90
10472;DHT22;5283;48.876;8.962;2022-11-15T16:49:04;11.60;99.90
10472;DHT22;5283;48.876;8.962;2022-11-15T16:51:30;11.60;99.90
10472;DHT22;5283;48.876;8.962;2022-11-15T16:53:57;11.60;99.90
10472;DHT22;5283;48.876;8.962;2022-11-15T16:56:29;11.60;99.90
10472;DHT22;5283;48.876;8.962;2022-11-15T16:58:57;11.60;99.90
10472;DHT22;5283;48.876;8.962;2022-11-15T17:01:26;11.50;99.90
10472;DHT22;5283;48.876;8.962;2022-11-15T17:03:53;11.50;99.90
10472;DHT22;5283;48.876;8.962;2022-11-15T17:06:21;11.40;99.90
10472;DHT22;5283;48.876;8.962;2022-11-15T17:08:48;11.40;99.90
10472;DHT22;5283;48.876;8.962;2022-11-15T17:11:20;11.30;99.90
10472;DHT22;5283;48.876;8.962;2022-11-15T17:13:47;11.20;99.90
10472;DHT22;5283;48.876;8.962;2022-11-15T17:16:16;11.20;99.90
10472;DHT22;5283;48.876;8.962;2022-11-15T17:18:43;11.10;99.90
10472;DHT22;5283;48.876;8.962;2022-11-15T17:21:13;11.00;99.90
10472;DHT22;5283;48.876;8.962;2022-11-15T17:23:40;10.90;99.90
10472;DHT22;5283;48.876;8.962;2022-11-15T17:26:11;10.80;99.90
10472;DHT22;5283;48.876;8.962;2022-11-15T17:28:54;10.80;99.90
10472;DHT22;5283;48.876;8.962;2022-11-15T17:31:22;10.90;99.90
10472;DHT22;5283;48.876;8.962;2022-11-15T17:33:49;11.00;99.90
10472;DHT22;5283;48.876;8.962;2022-11-15T17:36:15;11.00;99.90
10472;DHT22;5283;48.876;8.962;2022-11-15T17:38:42;11.00;99.90
10472;DHT22;5283;48.876;8.962;2022-11-15T17:41:13;11.10;99.90
10472;DHT22;5283;48.876;8.962;2022-11-15T17:43:40;11.10;99.90
10472;DHT22;5283;48.876;8.962;2022-11-15T17:46:11;11.00;99.90
10472;DHT22;5283;48.876;8.962;2022-11-15T17:48:38;11.00;99.90
10472;DHT22;5283;48.876;8.962;2022-11-15T17:51:08;11.00;99.90
10472;DHT22;5283;48.876;8.962;2022-11-15T17:53:41;10.90;99.90
10472;DHT22;5283;48.876;8.962;2022-11-15T17:56:10;10.90;99.90